Time,TemperatureF,DewpointF,PressureIn,WindDirection,WindDirectionDegrees,WindSpeedMPH,WindSpeedGustMPH,Humidity,HourlyPrecipIn,Conditions,Clouds,dailyrainin,SoftwareType,DateUTC
2013-09-23 00:11:00,-999.0,-99.9,29.80,North,-999,-999.0,-999.0,-999,0.00,,,0.22,weatherlink.com 1.10,2013-09-23 07:11:00,
2013-09-23 00:26:00,-999.0,-99.9,29.80,North,-999,-999.0,-999.0,-999,0.00,,,0.22,weatherlink.com 1.10,2013-09-23 07:26:00,
2013-09-23 00:41:00,-999.0,-99.9,29.80,North,-999,-999.0,-999.0,-999,0.00,,,0.22,weatherlink.com 1.10,2013-09-23 07:41:00,
2013-09-23 00:56:00,-999.0,-99.9,29.81,North,-999,-999.0,-999.0,-999,0.00,,,0.22,weatherlink.com 1.10,2013-09-23 07:56:00,
2013-09-23 01:11:00,-999.0,-99.9,29.81,North,-999,-999.0,-999.0,-999,0.00,,,0.22,weatherlink.com 1.10,2013-09-23 08:11:00,
2013-09-23 01:26:00,-999.0,-99.9,29.82,North,-999,-999.0,-999.0,-999,0.00,,,0.22,weatherlink.com 1.10,2013-09-23 08:26:00,
2013-09-23 01:41:00,-999.0,-99.9,29.82,North,-999,-999.0,-999.0,-999,0.00,,,0.22,weatherlink.com 1.10,2013-09-23 08:41:00,
2013-09-23 01:56:00,-999.0,-99.9,29.82,North,-999,-999.0,-999.0,-999,0.00,,,0.00,weatherlink.com 1.10,2013-09-23 08:56:00,
2013-09-23 02:11:00,-999.0,-99.9,29.82,North,-999,-999.0,-999.0,-999,0.00,,,0.00,weatherlink.com 1.10,2013-09-23 09:11:00,
2013-09-23 02:26:00,-999.0,-99.9,29.82,North,-999,-999.0,-999.0,-999,0.00,,,0.00,weatherlink.com 1.10,2013-09-23 09:26:00,
2013-09-23 02:41:00,-999.0,-99.9,29.83,North,-999,-999.0,-999.0,-999,0.00,,,0.00,weatherlink.com 1.10,2013-09-23 09:41:00,
2013-09-23 02:56:00,-999.0,-99.9,29.84,North,-999,-999.0,-999.0,-999,0.00,,,0.00,weatherlink.com 1.10,2013-09-23 09:56:00,
2013-09-23 03:11:00,-999.0,-99.9,29.84,North,-999,-999.0,-999.0,-999,0.00,,,0.00,weatherlink.com 1.10,2013-09-23 10:11:00,
2013-09-23 03:27:00,-999.0,-99.9,29.84,North,-999,-999.0,-999.0,-999,0.00,,,0.00,weatherlink.com 1.10,2013-09-23 10:27:00,
2013-09-23 03:42:00,-999.0,-99.9,29.85,North,-999,-999.0,-999.0,-999,0.00,,,0.00,weatherlink.com 1.10,2013-09-23 10:42:00,
2013-09-23 03:57:00,-999.0,-99.9,29.85,North,-999,-999.0,-999.0,-999,0.00,,,0.00,weatherlink.com 1.10,2013-09-23 10:57:00,
2013-09-23 04:12:00,-999.0,-99.9,29.84,North,-999,-999.0,-999.0,-999,0.00,,,0.00,weatherlink.com 1.10,2013-09-23 11:12:00,
2013-09-23 04:27:00,-999.0,-99.9,29.85,North,-999,-999.0,-999.0,-999,0.00,,,0.00,weatherlink.com 1.10,2013-09-23 11:27:00,
2013-09-23 04:42:00,-999.0,-99.9,29.85,North,-999,-999.0,-999.0,-999,0.00,,,0.00,weatherlink.com 1.10,2013-09-23 11:42:00,
2013-09-23 04:57:00,-999.0,-99.9,29.86,North,-999,-999.0,-999.0,-999,0.00,,,0.00,weatherlink.com 1.10,2013-09-23 11:57:00,
2013-09-23 05:12:00,-999.0,-99.9,29.86,North,-999,-999.0,-999.0,-999,0.00,,,0.00,weatherlink.com 1.10,2013-09-23 12:12:00,
2013-09-23 05:27:00,-999.0,-99.9,29.87,North,-999,-999.0,-999.0,-999,0.00,,,0.00,weatherlink.com 1.10,2013-09-23 12:27:00,
2013-09-23 05:42:00,-999.0,-99.9,29.87,North,-999,-999.0,-999.0,-999,0.00,,,0.00,weatherlink.com 1.10,2013-09-23 12:42:00,
2013-09-23 05:57:00,-999.0,-99.9,29.88,North,-999,-999.0,-999.0,-999,0.00,,,0.00,weatherlink.com 1.10,2013-09-23 12:57:00,
2013-09-23 06:12:00,-999.0,-99.9,29.88,North,-999,-999.0,-999.0,-999,0.00,,,0.00,weatherlink.com 1.10,2013-09-23 13:12:00,
2013-09-23 06:27:00,-999.0,-99.9,29.88,North,-999,-999.0,-999.0,-999,0.00,,,0.00,weatherlink.com 1.10,2013-09-23 13:27:00,
2013-09-23 06:43:00,-999.0,-99.9,29.88,North,-999,-999.0,-999.0,-999,0.00,,,0.00,weatherlink.com 1.10,2013-09-23 13:43:00,
2013-09-23 06:58:00,-999.0,-99.9,29.89,North,-999,-999.0,-999.0,-999,0.00,,,0.00,weatherlink.com 1.10,2013-09-23 13:58:00,
2013-09-23 07:13:00,-999.0,-99.9,29.89,North,-999,-999.0,-999.0,-999,0.00,,,0.00,weatherlink.com 1.10,2013-09-23 14:13:00,
2013-09-23 07:28:00,-999.0,-99.9,29.89,North,-999,-999.0,-999.0,-999,0.00,,,0.00,weatherlink.com 1.10,2013-09-23 14:28:00,
2013-09-23 07:43:00,-999.0,-99.9,29.90,North,-999,-999.0,-999.0,-999,0.00,,,0.00,weatherlink.com 1.10,2013-09-23 14:43:00,
2013-09-23 07:58:00,-999.0,-99.9,29.90,North,-999,-999.0,-999.0,-999,0.00,,,0.00,weatherlink.com 1.10,2013-09-23 14:58:00,
2013-09-23 08:13:00,45.6,45.0,29.91,ESE,111,0.0,0.0,98,0.00,,,0.00,weatherlink.com 1.10,2013-09-23 15:13:00,
2013-09-23 08:28:00,46.2,46.0,29.91,NE,40,0.0,5.0,98,0.00,,,0.00,weatherlink.com 1.10,2013-09-23 15:28:00,
2013-09-23 08:43:00,46.9,46.0,29.91,NE,40,0.0,0.0,98,0.00,,,0.00,weatherlink.com 1.10,2013-09-23 15:43:00,
2013-09-23 08:58:00,47.4,47.0,29.91,NE,40,0.0,0.0,98,0.00,,,0.00,weatherlink.com 1.10,2013-09-23 15:58:00,
2013-09-23 09:13:00,47.9,47.0,29.92,NE,40,0.0,0.0,98,0.00,,,0.00,weatherlink.com 1.10,2013-09-23 16:13:00,
2013-09-23 09:28:00,48.6,48.0,29.92,WNW,291,0.0,1.0,98,0.01,,,0.01,weatherlink.com 1.10,2013-09-23 16:28:00,
2013-09-23 09:43:00,49.3,49.0,29.92,ENE,60,0.0,1.0,97,0.01,,,0.01,weatherlink.com 1.10,2013-09-23 16:43:00,
2013-09-23 09:58:00,49.6,49.0,29.93,East,82,0.0,0.0,96,0.01,,,0.01,weatherlink.com 1.10,2013-09-23 16:58:00,
2013-09-23 10:13:00,50.1,49.0,29.93,East,82,0.0,0.0,95,0.01,,,0.01,weatherlink.com 1.10,2013-09-23 17:13:00,
2013-09-23 10:28:00,50.5,49.0,29.93,East,81,0.0,0.0,95,0.00,,,0.01,weatherlink.com 1.10,2013-09-23 17:28:00,
2013-09-23 10:43:00,50.8,49.0,29.93,WNW,294,0.0,1.0,94,0.00,,,0.01,weatherlink.com 1.10,2013-09-23 17:43:00,
2013-09-23 10:58:00,51.6,50.0,29.93,WNW,290,0.0,0.0,93,0.00,,,0.01,weatherlink.com 1.10,2013-09-23 17:58:00,
2013-09-23 11:13:00,52.2,50.0,29.94,SSE,148,0.0,0.0,92,0.00,,,0.01,weatherlink.com 1.10,2013-09-23 18:13:00,
2013-09-23 11:28:00,52.3,50.0,29.94,SE,143,0.0,1.0,90,0.00,,,0.01,weatherlink.com 1.10,2013-09-23 18:28:00,
2013-09-23 11:44:00,52.1,50.0,29.94,WNW,300,0.0,1.0,91,0.00,,,0.01,weatherlink.com 1.10,2013-09-23 18:44:00,
2013-09-23 11:59:00,52.2,49.0,29.95,West,271,0.0,2.0,89,0.00,,,0.01,weatherlink.com 1.10,2013-09-23 18:59:00,
2013-09-23 12:14:00,52.8,50.0,29.94,South,183,0.0,0.0,89,0.00,,,0.01,weatherlink.com 1.10,2013-09-23 19:14:00,
2013-09-23 12:29:00,53.1,49.0,29.95,East,89,0.0,1.0,87,0.00,,,0.01,weatherlink.com 1.10,2013-09-23 19:29:00,
2013-09-23 12:44:00,53.1,50.0,29.95,ENE,60,0.0,1.0,88,0.00,,,0.01,weatherlink.com 1.10,2013-09-23 19:44:00,
2013-09-23 12:59:00,52.8,50.0,29.96,ENE,60,0.0,0.0,90,0.00,,,0.01,weatherlink.com 1.10,2013-09-23 19:59:00,
2013-09-23 13:14:00,53.0,50.0,29.96,ENE,57,0.0,4.0,88,0.01,,,0.02,weatherlink.com 1.10,2013-09-23 20:14:00,
2013-09-23 13:29:00,53.8,48.0,29.95,WNW,291,2.0,4.0,81,0.01,,,0.02,weatherlink.com 1.10,2013-09-23 20:29:00,
2013-09-23 13:44:00,53.7,47.0,29.95,SE,126,0.0,5.0,79,0.01,,,0.02,weatherlink.com 1.10,2013-09-23 20:44:00,
2013-09-23 13:59:00,53.0,48.0,29.95,ESE,120,2.0,5.0,83,0.01,,,0.02,weatherlink.com 1.10,2013-09-23 20:59:00,
2013-09-23 14:14:00,52.8,47.0,29.96,East,85,2.0,4.0,81,0.00,,,0.02,weatherlink.com 1.10,2013-09-23 21:14:00,
2013-09-23 14:29:00,53.3,47.0,29.96,ENE,61,1.0,3.0,80,0.00,,,0.02,weatherlink.com 1.10,2013-09-23 21:29:00,
2013-09-23 14:44:00,53.9,48.0,29.96,NE,46,2.0,4.0,79,0.00,,,0.02,weatherlink.com 1.10,2013-09-23 21:44:00,
2013-09-23 14:59:00,53.9,48.0,29.96,ESE,104,0.0,4.0,80,0.00,,,0.02,weatherlink.com 1.10,2013-09-23 21:59:00,
2013-09-23 15:14:00,53.9,47.0,29.96,SE,139,1.0,4.0,77,0.00,,,0.02,weatherlink.com 1.10,2013-09-23 22:14:00,
2013-09-23 15:29:00,53.9,47.0,29.97,ENE,72,0.0,7.0,77,0.00,,,0.02,weatherlink.com 1.10,2013-09-23 22:29:00,
2013-09-23 15:44:00,53.8,47.0,29.97,East,80,2.0,5.0,77,0.00,,,0.02,weatherlink.com 1.10,2013-09-23 22:44:00,
2013-09-23 15:59:00,53.6,46.0,29.97,ENE,70,0.0,5.0,75,0.00,,,0.02,weatherlink.com 1.10,2013-09-23 22:59:00,
2013-09-23 16:14:00,53.5,46.0,29.98,SE,145,0.0,3.0,77,0.00,,,0.02,weatherlink.com 1.10,2013-09-23 23:14:00,
2013-09-23 16:29:00,53.3,46.0,29.98,East,98,1.0,3.0,76,0.00,,,0.02,weatherlink.com 1.10,2013-09-23 23:29:00,
2013-09-23 16:44:00,53.7,47.0,29.97,ESE,114,0.0,2.0,77,0.00,,,0.02,weatherlink.com 1.10,2013-09-23 23:44:00,
2013-09-23 16:59:00,53.7,46.0,29.98,ESE,108,0.0,5.0,74,0.00,,,0.02,weatherlink.com 1.10,2013-09-23 23:59:00,
2013-09-23 17:14:00,53.7,46.0,29.97,SE,129,0.0,1.0,75,0.00,,,0.02,weatherlink.com 1.10,2013-09-24 00:14:00,
2013-09-23 17:29:00,53.3,46.0,29.98,SE,136,0.0,1.0,75,0.00,,,0.02,weatherlink.com 1.10,2013-09-24 00:29:00,
2013-09-23 17:44:00,53.2,47.0,29.97,SSE,150,0.0,1.0,78,0.00,,,0.02,weatherlink.com 1.10,2013-09-24 00:44:00,
2013-09-23 17:59:00,52.7,47.0,29.98,SSE,148,0.0,0.0,82,0.00,,,0.02,weatherlink.com 1.10,2013-09-24 00:59:00,
2013-09-23 18:14:00,51.9,48.0,29.98,SE,145,0.0,1.0,85,0.00,,,0.02,weatherlink.com 1.10,2013-09-24 01:14:00,
2013-09-23 18:29:00,51.1,47.0,29.98,SE,145,0.0,0.0,86,0.00,,,0.02,weatherlink.com 1.10,2013-09-24 01:29:00,
2013-09-23 18:44:00,49.9,45.0,29.98,WNW,291,0.0,4.0,83,0.00,,,0.02,weatherlink.com 1.10,2013-09-24 01:44:00,
2013-09-23 18:59:00,-999.0,-99.9,29.98,North,-999,-999.0,-999.0,-999,0.00,,,0.02,weatherlink.com 1.10,2013-09-24 01:59:00,
2013-09-23 19:14:00,-999.0,-99.9,29.98,North,-999,-999.0,-999.0,-999,0.00,,,0.02,weatherlink.com 1.10,2013-09-24 02:14:00,
2013-09-23 19:29:00,-999.0,-99.9,29.98,North,-999,-999.0,-999.0,-999,0.00,,,0.02,weatherlink.com 1.10,2013-09-24 02:29:00,
2013-09-23 19:44:00,-999.0,-99.9,29.98,North,-999,-999.0,-999.0,-999,0.00,,,0.02,weatherlink.com 1.10,2013-09-24 02:44:00,
2013-09-23 20:00:00,-999.0,-99.9,29.98,North,-999,-999.0,-999.0,-999,0.00,,,0.02,weatherlink.com 1.10,2013-09-24 03:00:00,
2013-09-23 20:15:00,-999.0,-99.9,29.98,North,-999,-999.0,-999.0,-999,0.00,,,0.02,weatherlink.com 1.10,2013-09-24 03:15:00,
2013-09-23 20:30:00,-999.0,-99.9,29.98,North,-999,-999.0,-999.0,-999,0.00,,,0.02,weatherlink.com 1.10,2013-09-24 03:30:00,
2013-09-23 20:45:00,-999.0,-99.9,29.98,North,-999,-999.0,-999.0,-999,0.00,,,0.02,weatherlink.com 1.10,2013-09-24 03:45:00,
2013-09-23 21:00:00,-999.0,-99.9,29.98,North,-999,-999.0,-999.0,-999,0.00,,,0.02,weatherlink.com 1.10,2013-09-24 04:00:00,
2013-09-23 21:15:00,-999.0,-99.9,29.99,North,-999,-999.0,-999.0,-999,0.00,,,0.02,weatherlink.com 1.10,2013-09-24 04:15:00,
2013-09-23 21:30:00,-999.0,-99.9,29.99,North,-999,-999.0,-999.0,-999,0.00,,,0.02,weatherlink.com 1.10,2013-09-24 04:30:00,
2013-09-23 21:45:00,-999.0,-99.9,29.99,North,-999,-999.0,-999.0,-999,0.00,,,0.02,weatherlink.com 1.10,2013-09-24 04:45:00,
2013-09-23 22:00:00,-999.0,-99.9,29.99,North,-999,-999.0,-999.0,-999,0.00,,,0.02,weatherlink.com 1.10,2013-09-24 05:00:00,
2013-09-23 22:15:00,-999.0,-99.9,29.99,North,-999,-999.0,-999.0,-999,0.00,,,0.02,weatherlink.com 1.10,2013-09-24 05:15:00,
2013-09-23 22:30:00,-999.0,-99.9,30.00,North,-999,-999.0,-999.0,-999,0.00,,,0.02,weatherlink.com 1.10,2013-09-24 05:30:00,
2013-09-23 22:45:00,-999.0,-99.9,30.00,North,-999,-999.0,-999.0,-999,0.00,,,0.02,weatherlink.com 1.10,2013-09-24 05:45:00,
2013-09-23 23:00:00,-999.0,-99.9,30.00,North,-999,-999.0,-999.0,-999,0.00,,,0.02,weatherlink.com 1.10,2013-09-24 06:00:00,
2013-09-23 23:15:00,-999.0,-99.9,29.99,North,-999,-999.0,-999.0,-999,0.00,,,0.02,weatherlink.com 1.10,2013-09-24 06:15:00,
2013-09-23 23:31:00,-999.0,-99.9,29.99,North,-999,-999.0,-999.0,-999,0.00,,,0.02,weatherlink.com 1.10,2013-09-24 06:31:00,
2013-09-23 23:46:00,-999.0,-99.9,29.99,North,-999,-999.0,-999.0,-999,0.00,,,0.02,weatherlink.com 1.10,2013-09-24 06:46:00,